createdAt,value
2023-02-09T00:01:20.270Z,102965.03
2023-02-09T00:03:47.578Z,102968.63
2023-02-09T00:06:17.118Z,102960.88
2023-02-09T00:08:44.837Z,102963.13
2023-02-09T00:11:47.574Z,102954.47
2023-02-09T00:14:19.645Z,102953.84
2023-02-09T00:16:48.595Z,102957.78
2023-02-09T00:19:16.681Z,102952.88
2023-02-09T00:21:43.535Z,102952.75
2023-02-09T00:24:11.350Z,102956.06
2023-02-09T00:26:38.431Z,102965.88
2023-02-09T00:29:06.356Z,102958.97
2023-02-09T00:31:33.442Z,102951.66
2023-02-09T00:34:00.987Z,102953.69
2023-02-09T00:36:28.409Z,102955.94
2023-02-09T00:38:56.380Z,102949.94
2023-02-09T00:41:43.779Z,102953.94
2023-02-09T00:44:12.359Z,102943.13
2023-02-09T00:46:39.144Z,102939.56
2023-02-09T00:49:06.678Z,102950.13
2023-02-09T00:51:33.517Z,102945.50
2023-02-09T00:54:00.580Z,102938.41
2023-02-09T00:56:27.420Z,102937.28
2023-02-09T00:58:54.462Z,102929.53
2023-02-09T01:01:21.500Z,102929.59
2023-02-09T01:03:48.623Z,102928.72
2023-02-09T01:06:15.508Z,102930.72
2023-02-09T01:08:42.560Z,102927.34
2023-02-09T01:11:15.340Z,102924.03
2023-02-09T01:13:43.442Z,102922.34
2023-02-09T01:16:13.357Z,102917.47
2023-02-09T01:18:41.584Z,102913.53
2023-02-09T01:21:16.241Z,102906.44
2023-02-09T01:23:43.540Z,102907.78
2023-02-09T01:26:12.177Z,102908.59
2023-02-09T01:28:39.716Z,102906.53
2023-02-09T01:31:17.984Z,102915.88
2023-02-09T01:33:45.123Z,102905.72
2023-02-09T01:36:11.895Z,102905.16
2023-02-09T01:38:38.962Z,102897.13
2023-02-09T01:41:05.728Z,102884.84
2023-02-09T01:43:51.301Z,102883.91
2023-02-09T01:46:18.226Z,102887.06
2023-02-09T01:48:46.360Z,102876.44
2023-02-09T01:51:14.386Z,102871.72
2023-02-09T01:53:41.615Z,102863.50
2023-02-09T01:56:15.573Z,102861.59
2023-02-09T01:58:43.351Z,102863.44
2023-02-09T02:01:10.217Z,102857.47
2023-02-09T02:03:37.326Z,102863.69
2023-02-09T02:06:09.306Z,102861.34
2023-02-09T02:09:02.976Z,102859.56
2023-02-09T02:11:29.908Z,102855.72
2023-02-09T02:13:57.484Z,102856.81
2023-02-09T02:16:58.723Z,102859.94
2023-02-09T02:19:44.410Z,102858.09
2023-02-09T02:22:35.276Z,102850.75
2023-02-09T02:25:23.966Z,102853.22
2023-02-09T02:28:15.390Z,102843.88
2023-02-09T02:31:12.345Z,102845.97
2023-02-09T02:33:49.621Z,102850.31
2023-02-09T02:36:37.703Z,102843.97
2023-02-09T02:39:04.431Z,102834.72
2023-02-09T02:41:57.284Z,102835.06
2023-02-09T02:44:28.561Z,102844.50
2023-02-09T02:47:01.577Z,102846.59
2023-02-09T02:49:49.954Z,102844.66
2023-02-09T02:52:19.758Z,102842.19
2023-02-09T02:54:57.349Z,102847.84
2023-02-09T02:57:30.544Z,102849.69
2023-02-09T03:00:22.738Z,102849.28
2023-02-09T03:02:54.750Z,102848.38
2023-02-09T03:05:24.857Z,102842.50
2023-02-09T03:07:52.082Z,102846.78
2023-02-09T03:10:26.980Z,102851.88
2023-02-09T03:13:15.442Z,102851.50
2023-02-09T03:16:00.874Z,102848.50
2023-02-09T03:18:33.577Z,102847.53
2023-02-09T03:21:16.979Z,102840.50
2023-02-09T03:23:52.898Z,102844.28
2023-02-09T03:26:25.316Z,102844.97
2023-02-09T03:28:56.367Z,102842.34
2023-02-09T03:31:24.557Z,102846.69
2023-02-09T03:33:51.928Z,102842.81
2023-02-09T03:36:20.686Z,102856.34
2023-02-09T03:38:47.790Z,102854.97
2023-02-09T03:41:14.949Z,102854.28
2023-02-09T03:44:00.553Z,102850.91
2023-02-09T04:30:32.484Z,102847.97
2023-02-09T04:32:59.766Z,102837.81
2023-02-09T04:35:26.525Z,102841.41
2023-02-09T04:37:53.566Z,102850.75
2023-02-09T04:40:20.463Z,102842.22
2023-02-09T04:42:47.923Z,102835.06
2023-02-09T04:45:14.914Z,102846.09
2023-02-09T04:47:41.962Z,102846.91
2023-02-09T04:50:09.404Z,102847.78
2023-02-09T04:52:36.435Z,102846.09
2023-02-09T04:55:03.388Z,102847.78
2023-02-09T04:57:48.966Z,102845.09
2023-02-09T05:00:15.983Z,102852.09
2023-02-09T05:02:43.003Z,102849.63
2023-02-09T05:05:09.810Z,102839.13
2023-02-09T05:07:36.879Z,102843.25
2023-02-09T05:10:03.760Z,102853.09
2023-02-09T05:12:30.806Z,102852.16
2023-02-09T05:14:57.562Z,102851.47
2023-02-09T05:17:24.570Z,102846.47
2023-02-09T05:19:51.538Z,102854.84
2023-02-09T05:22:18.609Z,102852.41
2023-02-09T05:24:45.369Z,102859.44
2023-02-09T05:27:12.431Z,102850.84
2023-02-09T05:29:39.231Z,102859.88
2023-02-09T05:32:06.378Z,102860.13
2023-02-09T05:34:33.384Z,102855.66
2023-02-09T05:37:00.521Z,102853.75
2023-02-09T05:39:27.411Z,102852.53
2023-02-09T05:42:13.147Z,102862.91
2023-02-09T05:44:39.942Z,102869.19
2023-02-09T05:47:07.154Z,102866.34
2023-02-09T05:49:34.540Z,102857.25
2023-02-09T05:52:02.568Z,102865.63
2023-02-09T05:54:29.539Z,102854.25
2023-02-09T05:56:56.625Z,102865.34
2023-02-09T05:59:23.457Z,102864.66
2023-02-09T06:01:50.931Z,102860.16
2023-02-09T06:04:17.688Z,102867.00
2023-02-09T06:06:44.842Z,102864.16
2023-02-09T06:09:11.834Z,102859.19
2023-02-09T06:11:38.973Z,102861.16
2023-02-09T06:14:05.785Z,102851.69
2023-02-09T06:16:33.152Z,102858.50
2023-02-09T06:18:59.914Z,102854.25
2023-02-09T06:21:27.003Z,102863.72
2023-02-09T06:23:53.816Z,102849.41
2023-02-09T06:26:21.365Z,102857.53
2023-02-09T06:28:48.131Z,102848.72
2023-02-09T06:31:15.228Z,102849.63
2023-02-09T06:33:42.075Z,102849.13
2023-02-09T06:36:10.033Z,102851.19
2023-02-09T06:38:37.959Z,102851.97
2023-02-09T06:41:05.606Z,102849.66
2023-02-09T06:43:32.808Z,102850.44
2023-02-09T06:46:05.752Z,102852.09
2023-02-09T06:48:32.735Z,102850.53
2023-02-09T06:51:00.381Z,102852.44
2023-02-09T06:53:28.354Z,102851.09
2023-02-09T06:56:01.021Z,102841.94
2023-02-09T06:58:28.545Z,102847.25
2023-02-09T07:00:55.647Z,102852.91
2023-02-09T07:03:22.411Z,102854.47
2023-02-09T07:05:49.496Z,102853.00
2023-02-09T07:08:16.237Z,102852.69
2023-02-09T07:10:46.275Z,102857.97
2023-02-09T07:13:13.253Z,102857.28
2023-02-09T07:15:40.409Z,102850.06
2023-02-09T07:18:07.281Z,102851.19
2023-02-09T07:20:34.338Z,102854.84
2023-02-09T07:23:01.607Z,102850.09
2023-02-09T07:25:28.690Z,102849.97
2023-02-09T07:27:55.560Z,102848.72
2023-02-09T07:30:22.725Z,102855.84
2023-02-09T07:32:49.538Z,102855.22
2023-02-09T07:35:16.854Z,102851.13
2023-02-09T07:37:43.729Z,102848.69
2023-02-09T07:40:11.367Z,102852.34
2023-02-09T07:42:39.702Z,102857.81
2023-02-09T07:45:09.155Z,102856.13
2023-02-09T07:47:38.631Z,102853.66
2023-02-09T07:50:07.094Z,102843.88
2023-02-09T07:52:33.877Z,102852.28
2023-02-09T07:55:01.041Z,102844.56
2023-02-09T07:57:28.034Z,102845.66
2023-02-09T07:59:55.070Z,102849.34
2023-02-09T08:02:36.637Z,102842.19
2023-02-09T08:05:07.938Z,102848.47
2023-02-09T08:07:34.741Z,102843.66
2023-02-09T08:10:02.117Z,102845.00
2023-02-09T08:12:48.411Z,102844.50
2023-02-09T08:15:21.083Z,102837.19
2023-02-09T08:17:50.865Z,102833.44
2023-02-09T08:20:20.192Z,102836.78
2023-02-09T08:22:50.651Z,102831.66
2023-02-09T08:25:20.796Z,102831.22
2023-02-09T08:27:47.714Z,102837.03
2023-02-09T08:30:17.094Z,102831.22
2023-02-09T08:32:44.168Z,102839.28
2023-02-09T08:35:11.485Z,102828.63
2023-02-09T08:37:38.370Z,102827.66
2023-02-09T08:40:06.028Z,102836.94
2023-02-09T08:42:32.851Z,102830.06
2023-02-09T08:44:59.938Z,102830.38
2023-02-09T08:47:26.710Z,102833.69
2023-02-09T08:49:53.761Z,102838.75
2023-02-09T08:52:20.604Z,102831.53
2023-02-09T08:54:47.669Z,102825.56
2023-02-09T08:57:14.449Z,102829.94
2023-02-09T08:59:41.500Z,102822.63
2023-02-09T09:02:08.900Z,102830.13
2023-02-09T09:04:36.034Z,102827.03
2023-02-09T09:07:02.840Z,102823.44
2023-02-09T09:09:30.030Z,102826.25
2023-02-09T09:11:56.983Z,102821.38
2023-02-09T09:14:26.477Z,102828.00
2023-02-09T09:16:53.471Z,102821.13
2023-02-09T09:19:20.620Z,102817.00
2023-02-09T09:21:47.458Z,102818.31
2023-02-09T09:24:14.568Z,102816.56
2023-02-09T09:26:41.318Z,102822.81
2023-02-09T09:29:10.701Z,102825.34
2023-02-09T09:31:38.108Z,102820.28
2023-02-09T09:34:05.603Z,102822.44
2023-02-09T09:36:32.387Z,102816.44
2023-02-09T09:38:59.499Z,102817.53
2023-02-09T09:41:32.162Z,102819.38
2023-02-09T09:44:01.235Z,102826.03
2023-02-09T09:46:36.859Z,102825.66
2023-02-09T09:49:05.630Z,102830.97
2023-02-09T09:51:40.364Z,102827.66
2023-02-09T09:54:23.339Z,102826.66
2023-02-09T09:56:51.296Z,102833.84
2023-02-09T09:59:22.246Z,102833.03
2023-02-09T10:01:51.163Z,102819.09
2023-02-09T10:04:20.972Z,102830.44
2023-02-09T10:06:57.314Z,102828.72
2023-02-09T10:09:34.722Z,102820.03
2023-02-09T10:12:07.623Z,102811.34
2023-02-09T10:14:34.765Z,102818.31
2023-02-09T10:17:01.611Z,102805.22
2023-02-09T10:19:30.362Z,102804.31
2023-02-09T10:21:57.585Z,102803.47
2023-02-09T10:24:33.358Z,102799.97
2023-02-09T10:27:07.756Z,102797.09
2023-02-09T10:29:35.815Z,102797.28
2023-02-09T10:32:12.170Z,102788.63
2023-02-09T10:34:40.888Z,102785.06
2023-02-09T10:37:43.892Z,102780.56
2023-02-09T10:40:17.668Z,102779.91
2023-02-09T10:43:20.140Z,102778.09
2023-02-09T10:45:53.010Z,102776.22
2023-02-09T10:48:21.936Z,102768.47
2023-02-09T10:50:56.451Z,102765.94
2023-02-09T10:53:29.976Z,102761.56
2023-02-09T10:56:23.341Z,102758.94
2023-02-09T10:58:53.663Z,102744.78
2023-02-09T11:01:27.491Z,102732.50
2023-02-09T11:04:18.258Z,102745.50
2023-02-09T11:07:05.554Z,102734.91
2023-02-09T11:09:36.566Z,102726.25
2023-02-09T11:12:03.934Z,102721.84
2023-02-09T11:14:31.565Z,102715.50
2023-02-09T11:17:36.423Z,102713.69
2023-02-09T11:20:24.977Z,102712.94
2023-02-09T11:23:07.081Z,102711.28
2023-02-09T11:25:45.413Z,102696.31
2023-02-09T11:28:21.047Z,102706.59
2023-02-09T11:31:19.331Z,102702.94
2023-02-09T11:34:05.853Z,102696.16
2023-02-09T11:36:59.470Z,102691.75
2023-02-09T11:39:54.315Z,102690.84
2023-02-09T11:42:44.928Z,102689.97
2023-02-09T11:45:35.276Z,102690.94
2023-02-09T11:48:10.997Z,102685.66
2023-02-09T11:51:01.496Z,102686.53
2023-02-09T11:53:58.963Z,102683.66
2023-02-09T11:56:28.741Z,102684.66
2023-02-09T11:59:38.650Z,102676.00
2023-02-09T12:02:29.925Z,102672.44
2023-02-09T12:05:01.649Z,102678.38
2023-02-09T12:07:50.354Z,102671.59
2023-02-09T12:10:29.033Z,102672.44
2023-02-09T12:13:12.938Z,102669.03
2023-02-09T12:15:45.786Z,102669.69
2023-02-09T12:18:19.315Z,102670.56
2023-02-09T12:20:51.912Z,102665.28
2023-02-09T12:23:32.740Z,102667.00
2023-02-09T12:26:17.605Z,102665.34
2023-02-09T12:29:03.482Z,102660.22
2023-02-09T12:31:51.441Z,102671.38
2023-02-09T12:34:27.685Z,102664.41
2023-02-09T12:37:28.802Z,102657.19
2023-02-09T12:40:10.171Z,102652.50
2023-02-09T12:42:46.487Z,102651.09
2023-02-09T12:45:34.742Z,102645.94
2023-02-09T12:48:21.804Z,102641.56
2023-02-09T12:50:53.987Z,102635.28
2023-02-09T12:53:32.334Z,102625.72
2023-02-09T12:56:06.442Z,102630.91
2023-02-09T12:58:45.148Z,102624.00
2023-02-09T13:01:14.674Z,102625.81
2023-02-09T13:03:56.947Z,102617.84
2023-02-09T13:06:44.916Z,102614.31
2023-02-09T13:09:20.806Z,102612.69
2023-02-09T13:11:58.224Z,102609.31
2023-02-09T13:14:25.748Z,102608.47
2023-02-09T13:17:24.905Z,102612.84
2023-02-09T13:20:22.743Z,102611.97
2023-02-09T13:22:56.446Z,102605.13
2023-02-09T13:25:39.257Z,102601.63
2023-02-09T13:28:18.695Z,102595.56
2023-02-09T13:30:46.659Z,102610.34
2023-02-09T13:33:50.971Z,102599.09
2023-02-09T13:36:40.538Z,102593.81
2023-02-09T13:39:08.504Z,102598.13
2023-02-09T13:41:40.934Z,102592.94
2023-02-09T13:44:29.248Z,102585.94
2023-02-09T13:47:01.100Z,102597.19
2023-02-09T13:49:30.009Z,102598.09
2023-02-09T13:52:09.172Z,102588.59
2023-02-09T13:54:36.386Z,102583.44
2023-02-09T13:57:03.611Z,102595.41
2023-02-09T13:59:30.726Z,102593.56
2023-02-09T14:01:57.538Z,102590.16
2023-02-09T14:04:30.284Z,102592.81
2023-02-09T14:07:08.543Z,102588.25
2023-02-09T14:09:50.194Z,102582.13
2023-02-09T14:12:44.466Z,102584.78
2023-02-09T14:15:33.004Z,102586.63
2023-02-09T14:18:00.034Z,102582.28
2023-02-09T14:20:27.134Z,102582.22
2023-02-09T14:23:01.163Z,102583.97
2023-02-09T14:25:29.639Z,102577.94
2023-02-09T14:27:57.854Z,102574.53
2023-02-09T14:30:29.643Z,102567.69
2023-02-09T14:32:59.046Z,102573.72
2023-02-09T14:35:26.159Z,102571.97
2023-02-09T14:37:55.571Z,102566.63
2023-02-09T14:40:29.818Z,102571.63
2023-02-09T14:43:11.584Z,102575.13
2023-02-09T14:45:48.175Z,102572.56
2023-02-09T14:48:29.360Z,102576.09
2023-02-09T14:50:59.547Z,102573.53
2023-02-09T14:53:29.275Z,102572.72
2023-02-09T14:55:58.121Z,102575.28
2023-02-09T14:58:32.723Z,102565.72
2023-02-09T15:01:02.277Z,102570.00
2023-02-09T15:03:29.387Z,102566.47
2023-02-09T15:06:02.475Z,102569.09
2023-02-09T15:08:33.174Z,102569.19
2023-02-09T15:11:03.119Z,102574.31
2023-02-09T15:13:32.525Z,102566.50
2023-02-09T15:15:59.627Z,102565.50
2023-02-09T15:18:27.215Z,102565.41
2023-02-09T15:20:54.286Z,102564.41
2023-02-09T15:23:21.062Z,102563.50
2023-02-09T15:25:48.428Z,102567.81
2023-02-09T15:28:28.442Z,102564.34
2023-02-09T15:31:06.333Z,102563.47
2023-02-09T15:33:33.197Z,102558.91
2023-02-09T15:36:00.433Z,102565.19
2023-02-09T15:38:28.019Z,102557.28
2023-02-09T15:41:14.421Z,102571.09
2023-02-09T15:44:00.201Z,102565.06
2023-02-09T15:46:46.028Z,102569.28
2023-02-09T15:49:13.077Z,102565.50
2023-02-09T15:51:41.153Z,102575.13
2023-02-09T15:54:22.216Z,102571.78
2023-02-09T15:56:49.461Z,102570.78
2023-02-09T15:59:21.587Z,102579.22
2023-02-09T16:01:49.686Z,102576.84
2023-02-09T16:04:16.848Z,102566.44
2023-02-09T16:06:48.440Z,102576.66
2023-02-09T16:09:22.665Z,102578.31
2023-02-09T16:11:49.911Z,102576.53
2023-02-09T16:14:22.294Z,102579.09
2023-02-09T16:16:50.024Z,102574.69
2023-02-09T16:19:17.222Z,102577.19
2023-02-09T16:21:48.950Z,102577.81
2023-02-09T16:24:38.875Z,102577.66
2023-02-09T16:27:18.452Z,102569.22
2023-02-09T16:29:45.278Z,102570.06
2023-02-09T16:32:22.006Z,102574.22
2023-02-09T16:34:49.384Z,102565.47
2023-02-09T16:37:19.833Z,102574.03
2023-02-09T16:39:46.624Z,102569.56
2023-02-09T16:42:15.838Z,102579.34
2023-02-09T16:44:43.023Z,102580.94
2023-02-09T16:47:26.223Z,102580.38
2023-02-09T16:50:05.059Z,102569.91
2023-02-09T16:52:32.250Z,102576.53
2023-02-09T16:55:00.986Z,102567.84
2023-02-09T16:57:28.600Z,102562.44
2023-02-09T16:59:55.881Z,102556.16
2023-02-09T17:02:35.759Z,102558.72
2023-02-09T17:05:13.559Z,102557.19
2023-02-09T17:07:53.670Z,102564.03
2023-02-09T17:10:23.831Z,102562.94
2023-02-09T17:12:53.215Z,102569.00
2023-02-09T17:15:30.035Z,102573.34
2023-02-09T17:18:04.183Z,102566.22
2023-02-09T17:20:36.934Z,102561.09
2023-02-09T17:23:04.439Z,102560.97
2023-02-09T17:25:31.442Z,102559.16
2023-02-09T17:27:58.811Z,102559.06
2023-02-09T17:30:25.719Z,102552.84
2023-02-09T17:33:00.316Z,102559.66
2023-02-09T17:35:53.060Z,102554.25
2023-02-09T17:38:22.827Z,102560.00
2023-02-09T17:40:51.188Z,102559.72
2023-02-09T17:43:18.350Z,102557.22
2023-02-09T17:45:49.280Z,102561.31
2023-02-09T17:48:25.704Z,102562.09
2023-02-09T17:50:56.275Z,102558.94
2023-02-09T17:53:28.045Z,102561.16
2023-02-09T17:55:57.664Z,102560.19
2023-02-09T17:58:25.650Z,102560.00
2023-02-09T18:00:53.314Z,102549.50
2023-02-09T18:03:23.747Z,102559.81
2023-02-09T18:05:58.684Z,102551.25
2023-02-09T18:08:27.370Z,102552.75
2023-02-09T18:10:58.505Z,102565.34
2023-02-09T18:13:27.137Z,102558.75
2023-02-09T18:15:54.737Z,102564.41
2023-02-09T18:18:24.158Z,102568.59
2023-02-09T18:20:51.476Z,102564.22
2023-02-09T18:23:18.591Z,102571.19
2023-02-09T18:25:47.602Z,102568.63
2023-02-09T18:28:16.824Z,102565.72
2023-02-09T18:30:44.527Z,102567.41
2023-02-09T18:33:12.506Z,102572.63
2023-02-09T18:35:41.831Z,102570.91
2023-02-09T18:38:11.233Z,102568.50
2023-02-09T18:40:39.023Z,102570.03
2023-02-09T18:43:08.012Z,102574.47
2023-02-09T18:45:35.413Z,102574.47
2023-02-09T18:48:02.576Z,102575.19
2023-02-09T18:50:32.783Z,102576.91
2023-02-09T18:53:01.830Z,102571.72
2023-02-09T18:55:31.974Z,102561.75
2023-02-09T18:58:00.970Z,102566.03
2023-02-09T19:00:28.412Z,102565.19
2023-02-09T19:02:59.436Z,102564.25
2023-02-09T19:05:29.215Z,102563.38
2023-02-09T19:07:56.897Z,102555.47
2023-02-09T19:10:25.250Z,102558.81
2023-02-09T19:12:52.447Z,102556.94
2023-02-09T19:15:19.545Z,102560.38
2023-02-09T19:17:46.421Z,102558.75
2023-02-09T19:20:18.477Z,102552.97
2023-02-09T19:22:47.505Z,102551.09
2023-02-09T19:25:14.934Z,102558.03
2023-02-09T19:27:42.267Z,102552.09
2023-02-09T19:30:13.164Z,102556.91
2023-02-09T19:32:40.906Z,102547.13
2023-02-09T19:35:08.230Z,102554.19
2023-02-09T19:37:36.239Z,102555.53
2023-02-09T19:40:04.954Z,102547.16
2023-02-09T19:42:32.453Z,102554.69
2023-02-09T19:44:59.741Z,102561.69
2023-02-09T19:47:27.388Z,102556.38
2023-02-09T19:49:58.544Z,102554.66
2023-02-09T19:52:26.844Z,102548.25
2023-02-09T19:54:56.560Z,102557.88
2023-02-09T19:57:24.433Z,102560.47
2023-02-09T19:59:53.439Z,102562.56
2023-02-09T20:02:20.253Z,102566.88
2023-02-09T20:04:47.393Z,102573.00
2023-02-09T20:07:15.500Z,102565.91
2023-02-09T20:09:42.631Z,102569.53
2023-02-09T20:12:09.545Z,102574.47
2023-02-09T20:14:36.763Z,102577.28
2023-02-09T20:17:03.754Z,102574.56
2023-02-09T20:19:31.071Z,102573.59
2023-02-09T20:21:58.784Z,102566.56
2023-02-09T20:24:25.816Z,102563.69
2023-02-09T20:26:52.602Z,102569.72
2023-02-09T20:29:22.181Z,102563.13
2023-02-09T20:31:49.684Z,102563.97
2023-02-09T20:34:17.035Z,102559.78
2023-02-09T20:36:48.227Z,102552.03
2023-02-09T20:39:16.584Z,102561.25
2023-02-09T20:42:05.686Z,102564.22
2023-02-09T20:44:52.693Z,102557.53
2023-02-09T20:47:19.913Z,102549.59
2023-02-09T20:49:47.145Z,102544.38
2023-02-09T20:52:14.130Z,102547.66
2023-02-09T20:54:41.254Z,102548.84
2023-02-09T20:57:08.091Z,102547.31
2023-02-09T20:59:35.227Z,102553.81
2023-02-09T21:02:02.081Z,102557.66
2023-02-09T21:04:30.300Z,102555.28
2023-02-09T21:07:00.950Z,102558.53
2023-02-09T21:09:29.140Z,102561.44
2023-02-09T21:11:57.168Z,102558.16
2023-02-09T21:14:40.021Z,102557.28
2023-02-09T21:17:08.212Z,102551.81
2023-02-09T21:19:35.315Z,102550.31
2023-02-09T21:22:02.314Z,102560.84
2023-02-09T21:24:29.485Z,102553.53
2023-02-09T21:26:56.264Z,102545.91
2023-02-09T21:29:23.361Z,102550.91
2023-02-09T21:31:52.053Z,102551.56
2023-02-09T21:34:19.179Z,102559.00
2023-02-09T21:36:46.218Z,102560.47
2023-02-09T21:39:13.807Z,102560.75
2023-02-09T21:41:59.549Z,102562.16
2023-02-09T21:44:26.615Z,102558.31
2023-02-09T21:46:54.126Z,102559.00
2023-02-09T21:49:21.274Z,102561.94
2023-02-09T21:51:48.130Z,102556.06
2023-02-09T21:54:16.869Z,102559.97
2023-02-09T21:56:44.757Z,102558.66
2023-02-09T21:59:12.063Z,102552.03
2023-02-09T22:01:39.569Z,102551.22
2023-02-09T22:04:06.830Z,102548.66
2023-02-09T22:06:33.714Z,102542.38
2023-02-09T22:09:02.869Z,102545.66
2023-02-09T22:11:29.906Z,102543.44
2023-02-09T22:13:57.052Z,102544.03
2023-02-09T22:16:24.593Z,102539.84
2023-02-09T22:18:52.174Z,102540.94
2023-02-09T22:21:19.378Z,102534.88
2023-02-09T22:23:47.103Z,102539.75
2023-02-09T22:26:14.552Z,102539.72
2023-02-09T22:28:42.378Z,102533.97
2023-02-09T22:31:11.974Z,102535.97
2023-02-09T22:33:39.719Z,102534.16
2023-02-09T22:36:15.471Z,102543.72
2023-02-09T22:38:44.820Z,102544.44
2023-02-09T22:41:23.995Z,102536.84
2023-02-09T22:44:02.831Z,102539.78
2023-02-09T22:46:35.205Z,102534.81
2023-02-09T22:49:08.098Z,102535.25
2023-02-09T22:51:35.989Z,102535.75
2023-02-09T22:54:04.921Z,102545.09
2023-02-09T22:56:32.309Z,102545.81
2023-02-09T22:59:00.481Z,102541.69
2023-02-09T23:01:28.207Z,102542.16
2023-02-09T23:03:55.613Z,102534.22
2023-02-09T23:06:30.218Z,102533.00
2023-02-09T23:09:00.367Z,102537.63
2023-02-09T23:11:28.743Z,102545.31
2023-02-09T23:14:09.616Z,102532.50
2023-02-09T23:16:36.687Z,102534.94
2023-02-09T23:19:06.579Z,102531.97
2023-02-09T23:21:36.498Z,102531.56
2023-02-09T23:24:04.134Z,102531.56
2023-02-09T23:26:31.540Z,102524.94
2023-02-09T23:29:00.477Z,102523.75
2023-02-09T23:31:27.917Z,102529.84
2023-02-09T23:33:55.120Z,102528.69
2023-02-09T23:36:26.206Z,102537.34
2023-02-09T23:38:55.404Z,102527.22
2023-02-09T23:41:23.273Z,102527.34
2023-02-09T23:43:50.927Z,102531.31
2023-02-09T23:46:20.926Z,102534.69
2023-02-09T23:48:48.371Z,102540.72
2023-02-09T23:51:18.399Z,102535.31
2023-02-09T23:53:46.633Z,102530.91
2023-02-09T23:56:15.194Z,102529.75
2023-02-09T23:58:44.737Z,102534.84
